Time;durP1;ratioP1;P1;durP2;ratioP2;P2;SDS_P1;SDS_P2;PMS_P1;PMS_P2;Temp;Humidity;BMP_temperature;BMP_pressure;BME280_temperature;BME280_humidity;BME280_pressure;Samples;Min_cycle;Max_cycle;Signal;HPM_P1;HPM_P2
2023/09/27 00:00:42;;;;;;;7.25;6.53;;;12.00;99.90;;;12.83;99.68;98388.16;10436986;28;20218;-79
2023/09/27 00:05:46;;;;;;;7.00;6.30;;;12.00;99.90;;;12.82;100.00;98393.22;10437309;28;20229;-79
2023/09/27 00:10:51;;;;;;;6.97;6.38;;;12.00;99.90;;;12.73;99.57;98393.53;10440322;28;20241;-80
2023/09/27 00:15:54;;;;;;;8.55;7.85;;;11.90;99.90;;;12.58;100.00;98388.44;10441424;28;20636;-81
2023/09/27 00:20:57;;;;;;;8.52;7.82;;;11.80;99.90;;;12.41;100.00;98384.00;10432939;28;20607;-79
2023/09/27 00:26:03;;;;;;;8.48;7.90;;;11.70;99.90;;;12.36;100.00;98378.63;10434381;28;20225;-80
2023/09/27 00:31:06;;;;;;;8.23;7.63;;;11.70;99.90;;;12.45;100.00;98379.94;10421287;28;20236;-80
2023/09/27 00:36:10;;;;;;;8.38;7.78;;;11.70;99.90;;;12.48;100.00;98390.38;10417330;28;20297;-80
2023/09/27 00:41:15;;;;;;;8.10;7.50;;;11.80;99.90;;;12.47;100.00;98394.59;10413901;28;20340;-79
2023/09/27 00:46:19;;;;;;;7.90;7.20;;;11.80;99.90;;;12.51;100.00;98401.69;10421281;28;20274;-79
2023/09/27 00:51:23;;;;;;;8.10;7.47;;;11.70;99.90;;;12.43;100.00;98392.69;10420446;28;21800;-79
2023/09/27 00:56:28;;;;;;;7.57;6.88;;;11.60;99.90;;;12.37;100.00;98389.75;10418624;28;20722;-79
2023/09/27 01:01:32;;;;;;;8.13;7.53;;;11.50;99.90;;;12.29;100.00;98397.00;10416546;28;20248;-79
2023/09/27 01:06:36;;;;;;;7.60;7.00;;;11.50;99.90;;;12.26;100.00;98393.38;10422576;28;20226;-79
2023/09/27 01:11:46;;;;;;;8.15;7.40;;;11.40;99.90;;;12.18;100.00;98396.34;10426268;28;20222;-79
2023/09/27 01:16:50;;;;;;;7.75;7.15;;;11.30;99.90;;;12.17;100.00;98389.47;10420293;28;20225;-78
2023/09/27 01:21:53;;;;;;;7.97;7.32;;;11.30;99.90;;;12.01;100.00;98397.03;10422982;28;20225;-80
2023/09/27 01:27:00;;;;;;;7.63;6.90;;;11.20;99.90;;;11.92;100.00;98399.03;10422799;28;20217;-79
2023/09/27 01:32:05;;;;;;;7.90;7.20;;;11.10;99.90;;;11.88;100.00;98392.84;10432628;28;20234;-80
2023/09/27 01:37:09;;;;;;;7.35;6.75;;;11.10;99.90;;;11.83;100.00;98396.78;10435638;28;20264;-82
2023/09/27 01:42:14;;;;;;;8.20;7.57;;;11.10;99.90;;;11.71;100.00;98406.28;10440960;28;20234;-81
2023/09/27 01:47:17;;;;;;;7.55;6.95;;;10.90;99.90;;;11.78;100.00;98408.41;10435646;28;20257;-83
2023/09/27 01:52:20;;;;;;;7.32;6.82;;;10.90;99.90;;;11.69;100.00;98393.38;10439311;28;20236;-82
2023/09/27 01:57:25;;;;;;;6.90;6.40;;;10.80;99.90;;;11.61;100.00;98396.25;10446366;28;20241;-79
2023/09/27 02:02:29;;;;;;;6.95;6.45;;;10.70;99.90;;;11.55;100.00;98401.00;10441006;28;20292;-80
2023/09/27 02:07:32;;;;;;;8.60;7.90;;;10.70;99.90;;;11.56;100.00;98408.78;10446203;28;20234;-80
2023/09/27 02:12:38;;;;;;;7.55;6.88;;;10.80;99.90;;;11.51;100.00;98407.59;10448951;28;20666;-82
2023/09/27 02:17:42;;;;;;;7.20;6.70;;;10.70;99.90;;;11.49;100.00;98414.31;10455696;28;20671;-81
2023/09/27 02:22:47;;;;;;;7.55;6.97;;;10.70;99.90;;;11.50;100.00;98424.66;10457414;28;20221;-79
2023/09/27 02:27:52;;;;;;;7.32;6.65;;;10.70;99.90;;;11.43;100.00;98425.03;10460168;28;20242;-79
2023/09/27 02:32:55;;;;;;;7.13;6.60;;;10.60;99.90;;;11.39;100.00;98419.63;10450691;28;20218;-79
2023/09/27 02:37:59;;;;;;;7.30;6.80;;;10.50;99.90;;;11.37;99.84;98423.78;10448523;28;20229;-78
2023/09/27 02:43:05;;;;;;;7.35;6.72;;;10.50;99.90;;;11.20;100.00;98421.03;10431770;28;20237;-80
2023/09/27 02:48:09;;;;;;;6.82;6.32;;;10.40;99.90;;;11.17;100.00;98423.41;10433293;28;20222;-78
2023/09/27 02:53:12;;;;;;;7.70;7.00;;;10.40;99.90;;;11.02;100.00;98414.75;10428003;28;20248;-78
2023/09/27 02:58:18;;;;;;;7.55;7.00;;;10.20;99.90;;;11.09;100.00;98419.47;10431875;28;20228;-79
2023/09/27 03:03:22;;;;;;;8.00;7.30;;;10.30;99.90;;;11.10;100.00;98418.66;10430361;28;20320;-78
2023/09/27 03:08:25;;;;;;;7.88;7.28;;;10.30;99.90;;;11.15;100.00;98407.06;10424843;28;20236;-80
2023/09/27 03:13:30;;;;;;;7.38;6.78;;;10.40;99.90;;;11.14;100.00;98404.41;10425775;28;21064;-78
2023/09/27 03:18:33;;;;;;;8.50;7.90;;;10.30;99.90;;;11.09;100.00;98411.78;10423033;28;20939;-79
2023/09/27 03:23:37;;;;;;;8.52;7.80;;;10.30;99.90;;;10.95;100.00;98402.34;10427092;28;20221;-79
2023/09/27 03:28:41;;;;;;;9.45;8.65;;;10.30;99.90;;;11.05;100.00;98407.28;10426138;28;20229;-78
2023/09/27 03:33:46;;;;;;;8.48;7.78;;;10.30;99.90;;;11.07;100.00;98403.13;10424393;28;20314;-78
2023/09/27 03:38:49;;;;;;;8.90;8.10;;;10.40;99.90;;;11.17;100.00;98404.59;10426369;28;20225;-80
2023/09/27 03:43:54;;;;;;;7.88;7.28;;;10.40;99.90;;;11.07;100.00;98403.13;10432895;28;20290;-79
2023/09/27 03:48:57;;;;;;;8.93;8.23;;;10.30;99.90;;;10.98;100.00;98402.53;10434307;28;20229;-80
2023/09/27 03:54:01;;;;;;;9.80;8.90;;;10.20;99.90;;;10.75;100.00;98412.16;10436799;28;20290;-78
2023/09/27 03:59:05;;;;;;;9.13;8.43;;;10.10;99.90;;;10.83;100.00;98403.31;10429863;28;20252;-80
2023/09/27 04:04:09;;;;;;;9.68;8.90;;;10.20;99.90;;;10.80;100.00;98413.34;10428388;28;20304;-81
2023/09/27 04:09:12;;;;;;;9.67;8.87;;;10.20;99.90;;;10.83;100.00;98407.56;10426210;28;20225;-77
2023/09/27 04:14:17;;;;;;;9.77;8.95;;;10.20;99.90;;;10.95;100.00;98398.09;10422020;28;20230;-78
2023/09/27 04:19:21;;;;;;;9.32;8.63;;;10.20;99.90;;;10.99;100.00;98405.22;10424013;28;20233;-77
2023/09/27 04:24:24;;;;;;;9.20;8.30;;;10.30;99.90;;;10.97;100.00;98417.00;10421453;28;20225;-77
2023/09/27 04:29:29;;;;;;;9.65;8.85;;;10.30;99.90;;;10.91;100.00;98415.72;10420742;28;20229;-77
2023/09/27 04:34:32;;;;;;;8.13;7.43;;;10.20;99.90;;;10.97;100.00;98441.69;10427842;28;20241;-77
2023/09/27 04:39:35;;;;;;;8.00;7.40;;;10.10;99.90;;;10.81;100.00;98429.56;10423566;28;20253;-76
2023/09/27 04:44:40;;;;;;;8.32;7.65;;;9.90;99.90;;;10.63;100.00;98449.72;10425847;28;20701;-77
2023/09/27 04:49:43;;;;;;;8.45;7.55;;;9.80;99.90;;;10.60;100.00;98434.19;10428606;28;20225;-79
2023/09/27 04:54:46;;;;;;;7.32;6.72;;;9.80;99.90;;;10.52;100.00;98430.22;10432649;28;20606;-79
2023/09/27 04:59:51;;;;;;;7.93;7.23;;;9.70;99.90;;;10.35;100.00;98441.88;10426754;28;20242;-78
2023/09/27 05:04:55;;;;;;;8.73;7.97;;;9.50;99.90;;;10.26;100.00;98454.00;10424779;28;21231;-77
2023/09/27 05:09:58;;;;;;;8.83;8.10;;;9.50;99.90;;;10.23;100.00;98462.34;10424290;28;20703;-77
2023/09/27 05:15:03;;;;;;;8.60;7.90;;;9.50;99.90;;;10.32;100.00;98473.22;10426065;28;20217;-78
2023/09/27 05:20:10;;;;;;;10.27;9.40;;;9.60;99.90;;;10.36;100.00;98470.09;10421427;28;20242;-77
2023/09/27 05:25:15;;;;;;;10.03;9.13;;;9.70;99.90;;;10.37;100.00;98465.88;10427091;28;20315;-77
2023/09/27 05:30:21;;;;;;;10.50;9.50;;;9.70;99.90;;;10.42;100.00;98473.84;10432818;28;20236;-78
2023/09/27 05:35:24;;;;;;;9.27;8.57;;;9.70;99.90;;;10.53;100.00;98494.25;10432780;28;20236;-77
2023/09/27 05:40:29;;;;;;;9.23;8.52;;;9.80;99.90;;;10.58;100.00;98491.97;10432387;28;20230;-78
2023/09/27 05:45:34;;;;;;;9.07;8.27;;;9.80;99.90;;;10.63;100.00;98495.72;10432071;28;20275;-78
2023/09/27 05:50:38;;;;;;;9.15;8.45;;;9.80;99.90;;;10.55;100.00;98502.00;10434475;28;20958;-78
2023/09/27 05:55:42;;;;;;;9.60;8.70;;;9.80;99.90;;;10.63;100.00;98499.97;10445706;28;20221;-79
2023/09/27 06:00:48;;;;;;;10.10;9.30;;;9.90;99.90;;;10.75;100.00;98506.75;10440815;28;20251;-79
2023/09/27 06:05:51;;;;;;;11.35;10.35;;;10.10;99.90;;;10.94;100.00;98502.88;10441418;28;20714;-78
2023/09/27 06:10:55;;;;;;;11.23;9.73;;;10.30;99.90;;;11.50;100.00;98503.09;10442531;28;20245;-78
2023/09/27 06:16:00;;;;;;;10.38;9.30;;;10.70;99.90;;;12.18;96.09;98488.59;10447815;28;20247;-80
2023/09/27 06:21:04;;;;;;;9.95;9.15;;;11.40;99.90;;;12.87;95.24;98498.66;10438432;28;20741;-77
2023/09/27 06:26:07;;;;;;;11.02;10.05;;;12.10;99.90;;;13.40;88.84;98493.16;10446671;28;20297;-79
2023/09/27 06:31:13;;;;;;;10.15;9.25;;;12.50;99.90;;;13.94;86.62;98491.88;10444195;28;20237;-79
2023/09/27 06:36:17;;;;;;;9.65;8.70;;;12.80;99.90;;;14.78;85.09;98485.13;10446292;28;20650;-78
2023/09/27 06:41:20;;;;;;;10.05;9.23;;;13.40;99.90;;;15.82;82.05;98484.19;10446458;28;20368;-79
2023/09/27 06:46:24;;;;;;;9.73;8.93;;;14.30;99.90;;;16.42;77.15;98490.34;10449866;28;20233;-79
2023/09/27 06:51:38;;;;;;;9.15;8.45;;;14.80;99.90;;;16.38;75.64;98491.03;10443393;28;20237;-80
2023/09/27 06:56:42;;;;;;;9.38;8.50;;;14.90;99.90;;;16.21;75.43;98487.69;10438835;28;20229;-78
2023/09/27 07:01:49;;;;;;;9.43;8.65;;;14.90;99.90;;;16.12;75.53;98487.28;10438312;28;20237;-79
2023/09/27 07:06:52;;;;;;;9.63;8.82;;;14.80;99.90;;;16.20;78.43;98489.41;10432945;28;20224;-80
2023/09/27 07:11:57;;;;;;;10.65;9.65;;;15.20;99.90;;;16.33;76.93;98495.97;10433602;28;20253;-78
2023/09/27 07:17:02;;;;;;;9.38;8.57;;;15.40;99.90;;;16.78;75.51;98497.97;10434216;28;20218;-79
2023/09/27 07:22:10;;;;;;;9.57;8.77;;;15.70;99.90;;;17.45;73.88;98503.34;10437067;28;20247;-78
2023/09/27 07:27:14;;;;;;;9.60;8.70;;;16.50;99.90;;;17.71;72.24;98500.91;10435846;28;20217;-79
2023/09/27 07:32:21;;;;;;;10.45;9.50;;;16.60;99.90;;;17.70;71.50;98506.91;10437507;28;20226;-79
2023/09/27 07:37:29;;;;;;;9.90;9.07;;;16.60;99.90;;;18.15;69.78;98500.06;10433288;28;20232;-80
2023/09/27 07:42:34;;;;;;;9.07;8.38;;;16.90;99.90;;;18.34;69.36;98491.31;10428347;28;20303;-80
2023/09/27 07:47:39;;;;;;;10.05;9.23;;;17.20;99.90;;;18.44;68.47;98488.19;10432487;28;20229;-79
2023/09/27 07:52:46;;;;;;;12.30;11.07;;;17.40;99.90;;;18.37;70.15;98480.16;10428806;28;20986;-80
2023/09/27 07:57:54;;;;;;;11.93;10.73;;;17.30;99.90;;;18.65;71.16;98469.94;10430088;28;20228;-81
2023/09/27 08:02:58;;;;;;;12.30;11.05;;;17.80;99.90;;;18.90;70.40;98484.66;10431815;28;21062;-80
2023/09/27 08:08:03;;;;;;;11.10;10.10;;;18.30;99.90;;;19.18;69.99;98480.44;10434193;28;20222;-79
2023/09/27 08:13:12;;;;;;;11.07;8.90;;;18.40;99.90;;;19.54;69.47;98474.66;10432447;28;20693;-80
2023/09/27 08:18:20;;;;;;;9.95;9.05;;;18.80;99.90;;;19.94;67.51;98466.41;10429651;28;20284;-80
2023/09/27 08:23:24;;;;;;;8.48;7.55;;;19.20;99.90;;;20.30;66.70;98464.84;10435107;28;20263;-80
2023/09/27 08:28:32;;;;;;;9.20;8.38;;;19.60;99.90;;;20.40;67.12;98459.06;10431408;28;20311;-81
2023/09/27 08:33:38;;;;;;;9.15;8.30;;;19.80;99.90;;;20.53;66.19;98453.41;10434638;28;20221;-80
2023/09/27 08:38:41;;;;;;;9.07;8.32;;;19.90;99.90;;;20.63;66.72;98442.44;10430717;28;20662;-80
2023/09/27 08:43:47;;;;;;;8.73;7.93;;;20.10;99.90;;;20.68;66.38;98446.03;10430043;28;20227;-82
2023/09/27 08:48:55;;;;;;;7.85;7.20;;;20.10;99.90;;;21.08;66.18;98428.84;10430803;28;20233;-81
2023/09/27 08:54:00;;;;;;;8.02;7.28;;;20.40;99.90;;;21.40;63.48;98422.69;10431797;28;20672;-80
2023/09/27 08:59:07;;;;;;;6.65;6.15;;;20.80;99.90;;;21.38;64.24;98419.22;10436378;28;20245;-81
2023/09/27 09:04:13;;;;;;;6.10;5.60;;;20.80;99.90;;;21.70;62.29;98410.38;10420664;28;20255;-80
2023/09/27 09:09:19;;;;;;;6.97;6.38;;;21.20;99.90;;;21.89;60.09;98396.06;10433114;28;20229;-81
2023/09/27 09:14:38;;;;;;;5.40;4.93;;;21.40;99.90;;;22.30;59.46;98392.56;10433101;28;20244;-81
2023/09/27 09:19:43;;;;;;;5.32;4.85;;;21.80;99.90;;;22.61;57.15;98388.78;10432368;28;20255;-80
2023/09/27 09:24:59;;;;;;;5.55;4.90;;;22.20;99.90;;;22.74;57.74;98384.66;10434897;28;20225;-82
2023/09/27 09:30:06;;;;;;;5.35;4.88;;;22.30;99.90;;;23.04;55.91;98379.13;10435946;28;20229;-81
2023/09/27 09:35:11;;;;;;;4.75;4.30;;;22.60;99.90;;;23.19;55.15;98363.69;10437310;28;20787;-81
2023/09/27 09:40:16;;;;;;;4.40;4.07;;;22.70;99.90;;;23.34;55.07;98369.13;10440237;28;20264;-82
2023/09/27 09:45:20;;;;;;;5.38;4.32;;;22.90;99.90;;;23.61;55.63;98362.56;10434442;28;20878;-80
2023/09/27 09:50:29;;;;;;;4.80;4.35;;;23.20;99.90;;;23.74;55.29;98346.22;10434357;28;20226;-80
2023/09/27 09:55:34;;;;;;;4.57;4.18;;;23.20;99.90;;;24.11;54.63;98344.03;10435266;28;20229;-83
2023/09/27 10:01:00;;;;;;;4.70;4.30;;;23.60;99.80;;;24.24;54.82;98322.41;10436757;28;20222;-80
2023/09/27 10:06:05;;;;;;;4.60;4.20;;;23.80;99.90;;;24.10;55.51;98316.19;10451669;28;20734;-82
2023/09/27 10:11:08;;;;;;;4.78;4.38;;;23.60;99.90;;;24.08;55.50;98312.66;10446750;28;20796;-81
2023/09/27 10:16:12;;;;;;;4.85;4.40;;;23.60;99.90;;;24.47;54.85;98295.66;10453193;28;20346;-81
2023/09/27 10:21:17;;;;;;;4.72;4.32;;;23.90;99.90;;;24.43;54.45;98284.28;10446134;28;20280;-81
2023/09/27 10:26:23;;;;;;;4.82;4.22;;;24.00;99.10;;;24.57;53.70;98284.41;10450388;28;20217;-83
2023/09/27 10:31:26;;;;;;;4.05;3.75;;;24.20;99.00;;;24.81;54.00;98285.44;10459004;28;20291;-81
2023/09/27 10:36:34;;;;;;;5.03;4.22;;;24.40;98.80;;;24.92;52.54;98279.47;10456140;28;20229;-80
2023/09/27 10:41:46;;;;;;;4.00;3.60;;;24.40;98.00;;;25.01;51.97;98273.41;10453130;28;20343;-82
2023/09/27 10:46:51;;;;;;;4.63;4.00;;;24.60;97.40;;;25.05;52.66;98274.31;10443926;28;20228;-81
2023/09/27 10:51:55;;;;;;;4.57;4.20;;;24.50;98.10;;;25.20;51.30;98250.00;10445989;28;20374;-81
2023/09/27 10:57:09;;;;;;;5.05;3.58;;;24.70;97.30;;;25.42;50.12;98233.53;10441152;28;20304;-82
2023/09/27 11:02:12;;;;;;;3.20;3.00;;;25.00;96.20;;;25.16;50.26;98226.44;10441757;28;20232;-82
2023/09/27 11:07:17;;;;;;;3.65;3.35;;;24.70;96.00;;;24.86;47.27;98232.31;10442919;28;20229;-80
2023/09/27 11:12:22;;;;;;;3.00;2.80;;;24.50;93.90;;;25.37;48.11;98224.78;10438450;28;20663;-79
2023/09/27 11:17:26;;;;;;;3.20;2.78;;;24.90;94.40;;;25.14;48.57;98211.59;10437048;28;20286;-82
2023/09/27 11:22:32;;;;;;;3.42;2.55;;;24.60;94.60;;;25.29;47.01;98200.31;10438709;28;20221;-79
2023/09/27 11:27:36;;;;;;;2.95;2.70;;;24.80;94.20;;;25.31;47.54;98203.81;10437384;28;20225;-81
2023/09/27 11:32:50;;;;;;;2.85;2.65;;;24.80;93.80;;;25.61;47.28;98193.44;10436012;28;20673;-80
2023/09/27 11:38:10;;;;;;;3.35;3.05;;;25.00;93.60;;;25.22;47.95;98185.47;10439717;28;20240;-83
2023/09/27 11:43:13;;;;;;;3.22;2.80;;;24.70;94.10;;;25.48;47.67;98175.94;10439967;28;20228;-80
2023/09/27 11:48:32;;;;;;;4.25;2.47;;;24.80;94.30;;;25.50;47.31;98174.22;10440128;28;20213;-81
2023/09/27 11:53:37;;;;;;;3.40;2.08;;;24.90;94.00;;;25.77;42.93;98181.25;10437997;28;20263;-82
2023/09/27 11:58:40;;;;;;;2.10;1.90;;;25.10;90.90;;;25.64;42.04;98171.63;10440619;28;20224;-81
2023/09/27 12:03:45;;;;;;;1.90;1.70;;;25.00;89.00;;;25.61;41.47;98167.25;10441187;28;20321;-80
2023/09/27 12:08:54;;;;;;;1.77;1.67;;;25.00;87.80;;;25.63;40.28;98170.75;10440152;28;20237;-82
2023/09/27 12:13:58;;;;;;;1.90;1.70;;;25.00;86.30;;;25.74;40.20;98176.00;10440240;28;20225;-81
2023/09/27 12:19:03;;;;;;;1.83;1.55;;;25.20;85.70;;;25.60;40.01;98162.88;10440838;28;20229;-82
2023/09/27 12:24:08;;;;;;;1.90;1.80;;;24.90;84.90;;;25.74;41.49;98159.41;10438724;28;20292;-82
2023/09/27 12:29:11;;;;;;;2.35;2.00;;;25.00;87.50;;;25.92;40.64;98151.59;10442498;28;20224;-82
2023/09/27 12:34:16;;;;;;;2.15;1.73;;;25.20;86.70;;;25.68;41.18;98151.56;10440342;28;20229;-81
2023/09/27 12:39:21;;;;;;;2.17;1.98;;;25.00;86.70;;;25.89;39.93;98140.25;10443852;28;20349;-81
2023/09/27 12:44:24;;;;;;;2.05;1.95;;;25.20;84.70;;;25.73;40.51;98141.97;10443438;28;20359;-82
2023/09/27 12:49:28;;;;;;;2.00;1.90;;;25.10;85.60;;;25.96;40.22;98132.41;10440991;28;20289;-81
2023/09/27 12:54:35;;;;;;;2.03;1.88;;;25.30;85.20;;;25.91;40.49;98125.41;10440032;28;20240;-82
2023/09/27 12:59:39;;;;;;;2.00;1.90;;;25.30;85.60;;;25.93;40.96;98121.06;10444539;28;20208;-81
2023/09/27 13:04:44;;;;;;;2.08;1.88;;;25.30;85.70;;;25.71;40.27;98114.91;10438320;28;20268;-82
2023/09/27 13:09:48;;;;;;;2.80;2.05;;;25.10;84.90;;;25.85;40.43;98113.19;10432319;28;20248;-81
2023/09/27 13:14:56;;;;;;;2.03;1.83;;;25.20;84.80;;;25.93;40.19;98108.84;10439338;28;20221;-80
2023/09/27 13:19:59;;;;;;;2.00;1.90;;;25.20;85.00;;;25.88;39.75;98101.84;10440931;28;20221;-80
2023/09/27 13:25:05;;;;;;;2.40;1.90;;;25.20;84.00;;;25.76;39.84;98103.56;10430395;28;20323;-80
2023/09/27 13:30:11;;;;;;;2.00;1.83;;;25.10;83.60;;;25.87;39.47;98098.38;10440119;28;22125;-81
2023/09/27 13:35:34;;;;;;;1.90;1.80;;;25.10;83.80;;;25.79;39.15;98079.97;10439820;28;20236;-80
2023/09/27 13:40:43;;;;;;;1.80;1.70;;;25.10;82.80;;;25.82;39.38;98073.88;10436678;28;20718;-80
2023/09/27 13:45:46;;;;;;;2.20;2.00;;;25.10;83.20;;;25.90;39.03;98085.25;10434288;28;20217;-79
2023/09/27 13:50:50;;;;;;;2.67;1.90;;;25.20;82.40;;;25.74;38.67;98073.00;10450624;28;20259;-82
2023/09/27 13:55:55;;;;;;;2.20;2.00;;;25.10;81.50;;;26.01;38.13;98065.16;10447346;28;20244;-80
2023/09/27 14:00:59;;;;;;;2.00;1.80;;;25.30;80.70;;;25.91;38.10;98054.69;10445407;28;20258;-82
2023/09/27 14:06:03;;;;;;;1.98;1.83;;;25.20;81.10;;;25.52;38.56;98049.41;10441851;28;20220;-83
2023/09/27 14:11:15;;;;;;;1.85;1.75;;;24.90;81.30;;;25.54;38.42;98044.19;10446291;28;20216;-82
2023/09/27 14:16:18;;;;;;;1.88;1.77;;;24.80;81.60;;;25.57;39.01;98044.19;10442684;28;20467;-81
2023/09/27 14:21:21;;;;;;;1.98;1.88;;;24.70;82.50;;;25.58;38.57;98038.97;10452213;28;20209;-79
2023/09/27 14:26:28;;;;;;;1.98;1.77;;;24.80;81.10;;;25.58;37.80;98035.44;10465093;28;20259;-80
2023/09/27 14:31:32;;;;;;;2.03;1.92;;;24.80;80.40;;;25.78;38.87;98031.09;10472221;28;20237;-82
2023/09/27 14:36:37;;;;;;;2.72;2.10;;;25.10;81.30;;;25.67;37.98;98024.09;10448399;28;20229;-79
2023/09/27 14:41:43;;;;;;;4.43;3.25;;;24.90;80.40;;;25.69;39.57;98022.38;10448998;28;20312;-81
2023/09/27 14:46:47;;;;;;;18.13;8.35;;;24.90;83.00;;;25.84;39.19;98015.41;10439342;28;20259;-79
2023/09/27 14:51:51;;;;;;;10.48;4.88;;;25.10;82.30;;;25.82;39.93;98008.41;10440696;28;20240;-80
2023/09/27 14:56:57;;;;;;;7.28;4.03;;;25.10;83.40;;;25.81;39.58;98007.53;10434272;28;20884;-78
2023/09/27 15:02:00;;;;;;;5.55;3.88;;;25.10;83.00;;;25.92;39.68;98006.66;10433284;28;20263;-78
2023/09/27 15:07:03;;;;;;;5.95;3.10;;;25.20;82.90;;;25.72;39.63;98001.41;10432166;28;20734;-80
2023/09/27 15:12:08;;;;;;;3.67;3.03;;;24.90;82.70;;;25.72;39.66;97998.78;10438836;28;20229;-79
2023/09/27 15:17:12;;;;;;;2.67;2.10;;;24.90;83.10;;;25.91;38.46;97997.94;10444610;28;20232;-80
2023/09/27 15:22:16;;;;;;;2.65;2.20;;;25.10;80.70;;;25.81;38.45;97996.16;10440467;28;20232;-80
2023/09/27 15:27:20;;;;;;;3.08;2.28;;;25.00;81.40;;;25.58;39.66;97983.09;10439572;28;20236;-81
2023/09/27 15:32:24;;;;;;;3.15;2.30;;;24.80;83.10;;;25.86;39.39;97994.44;10436120;28;20229;-79
2023/09/27 15:37:28;;;;;;;3.38;2.05;;;25.20;82.40;;;25.82;39.72;97990.06;10443774;28;20244;-79
2023/09/27 15:42:32;;;;;;;2.58;1.90;;;25.00;82.40;;;25.59;40.81;97990.97;10434823;28;20240;-81
2023/09/27 15:47:36;;;;;;;2.38;2.17;;;24.70;84.50;;;25.52;41.82;97988.34;10434637;28;20217;-80
2023/09/27 15:52:39;;;;;;;2.42;2.22;;;24.60;86.40;;;25.35;43.07;97990.94;10441118;28;20303;-81
2023/09/27 15:57:44;;;;;;;4.72;3.20;;;24.50;88.10;;;25.20;44.03;97977.88;10440080;28;20216;-81
2023/09/27 16:02:47;;;;;;;4.10;2.83;;;24.30;89.50;;;25.02;44.67;97973.47;10434941;28;20219;-81
2023/09/27 16:07:51;;;;;;;4.00;3.10;;;24.10;90.20;;;24.95;44.83;97977.78;10432384;28;20233;-79
2023/09/27 16:12:56;;;;;;;2.42;2.22;;;24.00;90.20;;;24.68;44.43;97979.47;10429984;28;20229;-78
2023/09/27 16:17:59;;;;;;;3.00;2.75;;;23.80;89.90;;;24.49;45.14;97975.06;10427132;28;20248;-79
2023/09/27 16:23:03;;;;;;;3.13;2.50;;;23.60;90.70;;;24.28;46.11;97976.69;10435097;28;20324;-79
2023/09/27 16:28:08;;;;;;;2.90;2.63;;;23.30;91.50;;;24.15;48.01;97989.66;10428736;28;20260;-78
2023/09/27 16:33:12;;;;;;;3.90;2.85;;;23.10;92.90;;;23.80;48.90;97982.50;10419511;28;20244;-78
2023/09/27 16:38:16;;;;;;;3.05;2.75;;;22.80;93.50;;;23.34;51.59;97985.63;10427902;28;20815;-79
2023/09/27 16:43:21;;;;;;;3.17;2.67;;;22.30;95.60;;;22.91;53.94;97994.75;10420679;28;20234;-79
2023/09/27 16:48:25;;;;;;;2.95;2.72;;;21.80;97.40;;;22.47;55.96;98006.41;10421685;28;20275;-76
2023/09/27 16:53:28;;;;;;;3.15;2.78;;;21.30;99.20;;;22.17;57.28;98001.69;10432045;28;20655;-78
2023/09/27 16:58:33;;;;;;;2.47;2.33;;;21.10;99.90;;;21.82;60.40;98008.97;10428725;28;20228;-79
2023/09/27 17:03:36;;;;;;;3.33;3.03;;;20.80;99.90;;;21.57;61.80;98008.56;10429415;28;20225;-80
2023/09/27 17:08:40;;;;;;;3.85;2.90;;;20.50;99.90;;;21.36;63.67;98008.22;10455241;28;20220;-80
2023/09/27 17:13:45;;;;;;;2.90;2.70;;;20.30;99.90;;;21.19;64.43;98004.44;10450900;28;20288;-79
2023/09/27 17:18:48;;;;;;;3.08;2.72;;;20.20;99.90;;;20.94;65.44;98011.78;10452901;28;20225;-80
2023/09/27 17:23:52;;;;;;;2.92;2.72;;;20.00;99.90;;;20.86;66.85;98010.78;10460439;28;20235;-81
2023/09/27 17:28:59;;;;;;;5.45;2.65;;;19.90;99.90;;;20.70;67.47;98026.06;10458961;28;20221;-81
2023/09/27 17:34:04;;;;;;;2.95;2.70;;;19.70;99.90;;;20.51;68.13;98034.31;10458013;28;22181;-80
2023/09/27 17:39:11;;;;;;;3.40;3.15;;;19.50;99.90;;;20.27;69.66;98028.63;10457871;28;20221;-81
2023/09/27 17:44:20;;;;;;;3.28;2.95;;;19.30;99.90;;;20.07;70.38;98030.78;10459205;28;20266;-80
2023/09/27 17:49:32;;;;;;;3.50;3.20;;;19.00;99.90;;;19.80;71.06;98027.59;10459062;28;20233;-82
2023/09/27 17:54:38;;;;;;;2.85;2.65;;;18.80;99.90;;;19.56;72.53;98034.75;10466348;28;20221;-80
2023/09/27 17:59:54;;;;;;;3.22;3.03;;;18.60;99.90;;;19.43;73.40;98035.25;10469383;28;20225;-80
2023/09/27 18:05:01;;;;;;;3.50;3.20;;;18.50;99.90;;;19.25;74.52;98046.91;10471597;28;20562;-79
2023/09/27 18:10:09;;;;;;;4.07;3.67;;;18.30;99.90;;;19.11;75.81;98058.66;10487031;28;20255;-80
2023/09/27 18:15:17;;;;;;;3.38;3.13;;;18.10;99.90;;;18.87;77.75;98059.75;10477969;28;20229;-78
2023/09/27 18:20:35;;;;;;;3.40;3.15;;;17.90;99.90;;;18.79;77.71;98069.00;10453734;28;20224;-78
2023/09/27 18:25:39;;;;;;;3.88;3.20;;;17.90;99.90;;;18.71;78.41;98082.53;10452186;28;20237;-79
2023/09/27 18:30:43;;;;;;;3.40;3.10;;;17.70;99.90;;;18.68;78.89;98088.50;10454500;28;20631;-79
2023/09/27 18:35:51;;;;;;;4.25;3.88;;;17.70;99.90;;;18.55;79.53;98094.19;10458286;28;20235;-79
2023/09/27 18:40:57;;;;;;;4.20;3.80;;;17.50;99.90;;;18.44;79.79;98083.50;10454978;28;20221;-78
2023/09/27 18:46:06;;;;;;;3.70;3.40;;;17.40;99.90;;;18.31;80.46;98087.41;10459198;28;20326;-80
2023/09/27 18:51:09;;;;;;;3.67;3.42;;;17.40;99.90;;;18.25;80.77;98089.81;10461097;28;20284;-79
2023/09/27 18:56:13;;;;;;;3.90;3.60;;;17.30;99.90;;;18.18;81.29;98090.50;10459912;28;20241;-79
2023/09/27 19:01:20;;;;;;;3.63;3.40;;;17.30;99.90;;;18.06;81.58;98095.28;10453670;28;20312;-78
2023/09/27 19:06:24;;;;;;;3.90;3.60;;;17.10;99.90;;;17.98;81.15;98092.44;10445900;28;20294;-79
2023/09/27 19:11:30;;;;;;;4.70;4.00;;;17.10;99.90;;;17.89;81.82;98093.03;10469984;28;20236;-80
2023/09/27 19:16:35;;;;;;;4.00;3.70;;;17.00;99.90;;;17.78;82.58;98099.56;10462869;28;20295;-80
2023/09/27 19:21:38;;;;;;;3.97;3.58;;;16.70;99.90;;;17.62;83.26;98089.50;10463152;28;20672;-78
2023/09/27 19:26:42;;;;;;;4.13;3.83;;;16.60;99.90;;;17.55;83.63;98086.72;10442158;28;20271;-79
2023/09/27 19:31:46;;;;;;;5.40;4.50;;;16.60;99.90;;;17.33;84.60;98085.13;10441066;28;20225;-80
2023/09/27 19:36:50;;;;;;;4.70;4.40;;;16.50;99.90;;;17.25;85.45;98086.56;10445342;28;20239;-81
2023/09/27 19:41:53;;;;;;;4.63;4.32;;;16.40;99.90;;;17.21;85.96;98079.53;10450873;28;20228;-81
2023/09/27 19:47:04;;;;;;;4.82;4.43;;;16.40;99.90;;;17.13;86.49;98078.41;10438178;28;20582;-83
2023/09/27 19:52:08;;;;;;;5.53;4.63;;;16.30;99.90;;;16.97;88.76;98083.84;10442475;28;20564;-82
2023/09/27 19:57:11;;;;;;;4.97;4.68;;;16.20;99.90;;;16.97;88.22;98087.31;10440043;28;21095;-80
2023/09/27 20:02:16;;;;;;;4.90;4.50;;;16.20;99.90;;;16.94;88.50;98091.47;10440953;28;20769;-80
2023/09/27 20:07:19;;;;;;;5.78;4.90;;;16.10;99.90;;;16.84;88.85;98085.13;10453505;28;20251;-80
2023/09/27 20:12:24;;;;;;;4.68;4.32;;;15.90;99.90;;;16.75;88.99;98087.34;10443007;28;20288;-79
2023/09/27 20:17:28;;;;;;;4.65;4.25;;;15.80;99.90;;;16.65;89.59;98092.16;10434657;28;20316;-80
2023/09/27 20:22:36;;;;;;;4.68;4.38;;;15.70;99.90;;;16.49;90.07;98088.97;10439250;28;20265;-80
2023/09/27 20:27:42;;;;;;;4.50;4.18;;;15.50;99.90;;;16.36;89.64;98091.06;10440290;28;20609;-78
2023/09/27 20:32:59;;;;;;;5.20;4.80;;;15.40;99.90;;;16.26;90.41;98077.78;10426420;28;20309;-80
2023/09/27 20:38:09;;;;;;;5.30;4.90;;;15.30;99.90;;;16.02;91.97;98082.84;10446512;28;20231;-81
2023/09/27 20:43:12;;;;;;;4.57;4.28;;;15.10;99.90;;;16.00;92.62;98080.22;10449803;28;20907;-80
2023/09/27 20:48:19;;;;;;;6.07;5.47;;;15.10;99.90;;;15.87;94.90;98081.41;10435731;28;20713;-80
2023/09/27 20:53:23;;;;;;;6.30;5.70;;;15.10;99.90;;;15.88;94.81;98082.28;10440125;28;20229;-78
2023/09/27 20:58:26;;;;;;;5.70;5.20;;;15.10;99.90;;;15.86;95.01;98081.38;10442409;28;20309;-80
2023/09/27 21:03:31;;;;;;;4.85;4.55;;;15.10;99.90;;;15.90;94.82;98090.97;10444097;28;20230;-79